Time;durP1;ratioP1;P1;durP2;ratioP2;P2;SDS_P1;SDS_P2;PMS_P1;PMS_P2;Temp;Humidity;BMP_temperature;BMP_pressure;BME280_temperature;BME280_humidity;BME280_pressure;Samples;Min_cycle;Max_cycle;Signal;HPM_P1;HPM_P2
2024/02/14 00:00:50;;;;;;;9.98;3.50;;;;;;;;;;5059194;28;20056;-74
2024/02/14 00:03:16;;;;;;;4.63;3.35;;;;;;;;;;5077181;28;20437;-76
2024/02/14 00:05:43;;;;;;;5.15;3.15;;;;;;;;;;5082576;28;20051;-70
2024/02/14 00:08:09;;;;;;;5.18;2.85;;;;;;;;;;5066585;28;20434;-70
2024/02/14 00:10:36;;;;;;;3.85;2.80;;;;;;;;;;5075211;28;20474;-72
2024/02/14 00:13:02;;;;;;;4.05;2.60;;;;;;;;;;5092434;28;20141;-70
2024/02/14 00:15:29;;;;;;;5.57;3.47;;;;;;;;;;5066027;28;20097;-71
2024/02/14 00:17:56;;;;;;;4.13;3.35;;;;;;;;;;5057288;28;20056;-71
2024/02/14 00:20:22;;;;;;;5.47;2.85;;;;;;;;;;5066282;28;20059;-69
2024/02/14 00:22:49;;;;;;;9.30;3.70;;;;;;;;;;5070212;28;20441;-70
2024/02/14 00:25:15;;;;;;;7.45;3.42;;;;;;;;;;5067985;28;20047;-71
2024/02/14 00:27:46;;;;;;;7.38;3.58;;;;;;;;;;5067510;28;20048;-71
2024/02/14 00:30:12;;;;;;;4.80;3.40;;;;;;;;;;5060217;28;20055;-70
2024/02/14 00:32:39;;;;;;;4.50;3.05;;;;;;;;;;5069650;28;20044;-70
2024/02/14 00:35:06;;;;;;;4.65;3.33;;;;;;;;;;5077643;28;20052;-70
2024/02/14 00:37:34;;;;;;;6.78;3.63;;;;;;;;;;5076729;28;20052;-70
2024/02/14 00:40:00;;;;;;;8.65;3.92;;;;;;;;;;5056825;28;20135;-70
2024/02/14 00:42:27;;;;;;;6.28;3.53;;;;;;;;;;5075916;28;20412;-70
2024/02/14 00:44:53;;;;;;;6.00;3.50;;;;;;;;;;5079397;28;20062;-70
2024/02/14 00:47:20;;;;;;;6.75;4.15;;;;;;;;;;5073437;28;20095;-71
2024/02/14 00:49:46;;;;;;;5.15;3.55;;;;;;;;;;5080349;28;20048;-70
2024/02/14 00:52:14;;;;;;;4.45;3.55;;;;;;;;;;5059556;28;20051;-71
2024/02/14 00:54:40;;;;;;;5.63;3.83;;;;;;;;;;5076740;28;20117;-70
2024/02/14 00:57:06;;;;;;;5.78;3.70;;;;;;;;;;5068311;28;20063;-70
2024/02/14 00:59:33;;;;;;;4.80;3.70;;;;;;;;;;5081393;28;20043;-69
2024/02/14 01:01:59;;;;;;;5.40;3.35;;;;;;;;;;5077232;28;20094;-71
2024/02/14 01:04:26;;;;;;;6.35;4.07;;;;;;;;;;5081833;28;20082;-70
2024/02/14 01:06:52;;;;;;;8.05;4.20;;;;;;;;;;5060555;28;20040;-70
2024/02/14 01:09:19;;;;;;;10.02;4.30;;;;;;;;;;5072286;28;21331;-69
2024/02/14 01:11:45;;;;;;;4.95;3.80;;;;;;;;;;5065392;28;20705;-71
2024/02/14 01:14:14;;;;;;;6.47;4.07;;;;;;;;;;5080892;28;20053;-69
2024/02/14 01:16:44;;;;;;;5.88;4.60;;;;;;;;;;5058374;28;20048;-74
2024/02/14 01:19:10;;;;;;;7.03;3.97;;;;;;;;;;5056399;28;20053;-73
2024/02/14 01:21:37;;;;;;;7.95;4.70;;;;;;;;;;5081083;28;20051;-73
2024/02/14 01:24:05;;;;;;;5.85;3.95;;;;;;;;;;5062765;28;20055;-73
2024/02/14 01:26:34;;;;;;;6.87;4.13;;;;;;;;;;5079749;28;20049;-73
2024/02/14 01:29:01;;;;;;;5.03;4.10;;;;;;;;;;5064846;28;20482;-74
2024/02/14 01:31:27;;;;;;;5.88;3.97;;;;;;;;;;5081827;28;20260;-74
2024/02/14 01:33:54;;;;;;;6.80;4.22;;;;;;;;;;5073869;28;20163;-72
2024/02/14 01:36:21;;;;;;;8.50;4.50;;;;;;;;;;5077316;28;20794;-73
2024/02/14 01:38:47;;;;;;;7.20;4.68;;;;;;;;;;5085082;28;20160;-73
2024/02/14 01:41:14;;;;;;;7.93;4.60;;;;;;;;;;5067095;28;20514;-74
2024/02/14 01:43:40;;;;;;;5.85;4.28;;;;;;;;;;5085284;28;20059;-74
2024/02/14 01:46:07;;;;;;;5.70;4.25;;;;;;;;;;5097027;28;20531;-75
2024/02/14 01:48:34;;;;;;;7.60;4.40;;;;;;;;;;5079276;28;20125;-75
2024/02/14 01:51:02;;;;;;;10.00;5.53;;;;;;;;;;5065147;28;20059;-75
2024/02/14 01:53:32;;;;;;;5.18;3.67;;;;;;;;;;5074947;28;20047;-75
2024/02/14 01:55:59;;;;;;;8.25;3.90;;;;;;;;;;5075111;28;20060;-74
2024/02/14 01:58:26;;;;;;;6.20;4.15;;;;;;;;;;5084756;28;20048;-75
2024/02/14 02:00:56;;;;;;;6.97;4.63;;;;;;;;;;5092962;28;20044;-75
2024/02/14 02:03:23;;;;;;;7.40;4.20;;;;;;;;;;5076494;28;20547;-76
2024/02/14 02:05:50;;;;;;;9.10;3.97;;;;;;;;;;5076393;28;20499;-76
2024/02/14 02:08:17;;;;;;;7.78;4.97;;;;;;;;;;5082189;28;20051;-72
2024/02/14 02:10:43;;;;;;;5.88;4.45;;;;;;;;;;5074482;28;20121;-76
2024/02/14 02:13:10;;;;;;;7.38;4.93;;;;;;;;;;5082961;28;20524;-75
2024/02/14 02:15:37;;;;;;;8.00;4.60;;;;;;;;;;5080129;28;20133;-73
2024/02/14 02:18:05;;;;;;;9.93;5.53;;;;;;;;;;5077821;28;20377;-76
2024/02/14 02:20:32;;;;;;;8.30;4.63;;;;;;;;;;5068444;28;20070;-73
2024/02/14 02:22:59;;;;;;;10.10;4.95;;;;;;;;;;5060737;28;20520;-76
2024/02/14 02:25:26;;;;;;;8.05;5.00;;;;;;;;;;5082736;28;20052;-73
2024/02/14 02:27:56;;;;;;;8.52;4.90;;;;;;;;;;5060027;28;20381;-71
2024/02/14 02:30:23;;;;;;;7.47;4.88;;;;;;;;;;5082217;28;20469;-73
2024/02/14 02:32:53;;;;;;;8.85;5.85;;;;;;;;;;5079974;28;20051;-71
2024/02/14 02:35:21;;;;;;;8.52;5.38;;;;;;;;;;5077800;28;20048;-70
2024/02/14 02:37:50;;;;;;;7.33;4.60;;;;;;;;;;5091691;28;20040;-71
2024/02/14 02:40:17;;;;;;;8.20;5.40;;;;;;;;;;5082040;28;20071;-72
2024/02/14 02:42:45;;;;;;;7.13;4.22;;;;;;;;;;5086363;28;20051;-70
2024/02/14 02:45:11;;;;;;;7.90;5.20;;;;;;;;;;5065933;28;20066;-72
2024/02/14 02:47:38;;;;;;;7.63;5.22;;;;;;;;;;5079897;28;20365;-70
2024/02/14 02:50:05;;;;;;;7.57;5.18;;;;;;;;;;5061076;28;20393;-71
2024/02/14 02:52:32;;;;;;;9.43;5.37;;;;;;;;;;5072327;28;20052;-71
2024/02/14 02:55:00;;;;;;;6.57;4.93;;;;;;;;;;5079947;28;20396;-71
2024/02/14 02:57:27;;;;;;;10.85;6.03;;;;;;;;;;5091471;28;20127;-71
2024/02/14 02:59:54;;;;;;;7.55;5.50;;;;;;;;;;5056524;28;20080;-71
2024/02/14 03:02:20;;;;;;;9.90;5.68;;;;;;;;;;5082406;28;20052;-71
2024/02/14 03:04:47;;;;;;;8.70;5.38;;;;;;;;;;5049074;28;20131;-72
2024/02/14 03:07:19;;;;;;;8.32;6.05;;;;;;;;;;5087742;28;20526;-71
2024/02/14 03:09:46;;;;;;;8.55;5.40;;;;;;;;;;5073095;28;20399;-74
2024/02/14 03:12:16;;;;;;;10.70;5.57;;;;;;;;;;5086259;28;20466;-72
2024/02/14 03:14:43;;;;;;;8.82;6.30;;;;;;;;;;5070249;28;20051;-72
2024/02/14 03:17:11;;;;;;;10.70;6.60;;;;;;;;;;5072085;28;20081;-72
2024/02/14 03:19:38;;;;;;;7.75;5.28;;;;;;;;;;5051944;28;20052;-74
2024/02/14 03:22:08;;;;;;;10.52;6.28;;;;;;;;;;5061184;28;20158;-72
2024/02/14 03:24:36;;;;;;;7.72;5.28;;;;;;;;;;5081130;28;20052;-72
2024/02/14 03:27:06;;;;;;;7.40;5.57;;;;;;;;;;5103285;28;20507;-73
2024/02/14 03:29:35;;;;;;;11.55;6.45;;;;;;;;;;5061675;28;20131;-73
2024/02/14 03:32:04;;;;;;;11.75;6.45;;;;;;;;;;5073146;28;20089;-73
2024/02/14 03:34:33;;;;;;;;;;;;;;;;;;5077771;28;20056;-73
2024/02/14 03:37:02;;;;;;;10.52;6.18;;;;;;;;;;5100840;27;20269;-74
2024/02/14 03:39:30;;;;;;;8.48;5.72;;;;;;;;;;5062405;28;20105;-74
2024/02/14 03:41:56;;;;;;;8.23;5.93;;;;;;;;;;5076734;28;20052;-75
2024/02/14 03:44:23;;;;;;;8.82;5.95;;;;;;;;;;5071090;28;20122;-73
2024/02/14 03:46:50;;;;;;;11.90;6.55;;;;;;;;;;5096111;28;20055;-73
2024/02/14 03:49:16;;;;;;;10.07;6.70;;;;;;;;;;5075410;28;20460;-72
2024/02/14 03:51:43;;;;;;;9.93;6.35;;;;;;;;;;5065277;28;20393;-72
2024/02/14 03:54:11;;;;;;;9.35;7.20;;;;;;;;;;5074658;28;20740;-72
2024/02/14 03:56:37;;;;;;;9.15;6.22;;;;;;;;;;5068930;28;20040;-73
2024/02/14 03:59:05;;;;;;;9.10;7.25;;;;;;;;;;5057947;28;20072;-71
2024/02/14 04:01:32;;;;;;;14.55;7.53;;;;;;;;;;5059312;28;20048;-72
2024/02/14 04:03:59;;;;;;;8.30;6.72;;;;;;;;;;5071704;28;20044;-71
2024/02/14 04:06:26;;;;;;;11.13;7.80;;;;;;;;;;5087346;28;20060;-71
2024/02/14 04:08:53;;;;;;;12.60;7.40;;;;;;;;;;5066596;28;20385;-71
2024/02/14 04:11:19;;;;;;;10.32;6.80;;;;;;;;;;5058683;28;20047;-71
2024/02/14 04:13:46;;;;;;;11.45;6.90;;;;;;;;;;5077022;28;20408;-73
2024/02/14 04:16:13;;;;;;;9.38;6.57;;;;;;;;;;5062384;28;20074;-73
2024/02/14 04:18:39;;;;;;;13.45;5.95;;;;;;;;;;5070716;28;20169;-71
2024/02/14 04:21:07;;;;;;;9.63;6.63;;;;;;;;;;5056803;28;20143;-72
2024/02/14 04:23:34;;;;;;;10.82;6.70;;;;;;;;;;5073043;28;20522;-70
2024/02/14 04:26:00;;;;;;;9.93;7.07;;;;;;;;;;5071301;28;20052;-73
2024/02/14 04:28:27;;;;;;;10.95;6.88;;;;;;;;;;5057200;28;20052;-73
2024/02/14 04:30:55;;;;;;;9.52;6.68;;;;;;;;;;5076449;28;20043;-72
2024/02/14 04:33:22;;;;;;;14.25;7.18;;;;;;;;;;5078215;28;20110;-72
2024/02/14 04:35:48;;;;;;;15.05;8.18;;;;;;;;;;5073454;28;20139;-70
2024/02/14 04:38:16;;;;;;;12.93;8.45;;;;;;;;;;5094621;28;20397;-73
2024/02/14 04:40:43;;;;;;;9.88;7.57;;;;;;;;;;5068448;28;20056;-73
2024/02/14 04:43:09;;;;;;;11.70;7.97;;;;;;;;;;5054932;28;20064;-72
2024/02/14 04:45:36;;;;;;;14.63;9.35;;;;;;;;;;5060119;28;20413;-72
2024/02/14 04:48:03;;;;;;;13.05;8.88;;;;;;;;;;5065872;28;20096;-72
2024/02/14 04:50:30;;;;;;;12.20;8.02;;;;;;;;;;5052122;28;20081;-74
2024/02/14 04:52:57;;;;;;;14.00;9.10;;;;;;;;;;5072495;28;20044;-72
2024/02/14 04:55:23;;;;;;;13.07;9.10;;;;;;;;;;5087138;28;20097;-71
2024/02/14 04:57:50;;;;;;;12.52;9.00;;;;;;;;;;5091983;27;20462;-72
2024/02/14 05:00:16;;;;;;;16.98;8.68;;;;;;;;;;5078376;28;20056;-74
2024/02/14 05:02:43;;;;;;;13.32;8.77;;;;;;;;;;5058868;28;20123;-72
2024/02/14 05:05:10;;;;;;;12.88;8.73;;;;;;;;;;5063156;28;20045;-72
2024/02/14 05:07:36;;;;;;;13.73;9.05;;;;;;;;;;5084654;28;20520;-72
2024/02/14 05:10:03;;;;;;;11.85;7.97;;;;;;;;;;5084812;28;20048;-73
2024/02/14 05:12:30;;;;;;;13.90;9.43;;;;;;;;;;5089006;28;20052;-72
2024/02/14 05:14:56;;;;;;;15.45;8.70;;;;;;;;;;5064840;28;20138;-72
2024/02/14 05:17:23;;;;;;;17.30;8.15;;;;;;;;;;5064637;28;20052;-73
2024/02/14 05:19:49;;;;;;;15.18;8.95;;;;;;;;;;5073821;28;20147;-72
2024/02/14 05:22:16;;;;;;;12.45;8.85;;;;;;;;;;5067126;28;20047;-73
2024/02/14 05:24:42;;;;;;;15.27;9.20;;;;;;;;;;5078695;28;20114;-72
2024/02/14 05:27:09;;;;;;;13.93;9.20;;;;;;;;;;5093306;28;20060;-71
2024/02/14 05:29:35;;;;;;;12.80;8.77;;;;;;;;;;5081701;28;20055;-72
2024/02/14 05:32:02;;;;;;;14.15;9.25;;;;;;;;;;5075750;28;20119;-72
2024/02/14 05:34:29;;;;;;;12.20;8.32;;;;;;;;;;5063168;28;20488;-72
2024/02/14 05:36:56;;;;;;;15.70;8.23;;;;;;;;;;5078072;28;20036;-71
2024/02/14 05:39:22;;;;;;;11.90;8.63;;;;;;;;;;5066829;28;20482;-72
2024/02/14 05:41:49;;;;;;;14.45;8.40;;;;;;;;;;5074309;28;20064;-72
2024/02/14 05:44:16;;;;;;;12.23;8.45;;;;;;;;;;5096024;28;20040;-73
2024/02/14 05:46:42;;;;;;;15.05;9.25;;;;;;;;;;5087493;28;20048;-74
2024/02/14 05:49:09;;;;;;;11.20;7.93;;;;;;;;;;5067829;28;20048;-72
2024/02/14 05:51:36;;;;;;;16.55;8.30;;;;;;;;;;5072079;28;20061;-74
2024/02/14 05:54:02;;;;;;;12.70;8.90;;;;;;;;;;5117847;27;20097;-72
2024/02/14 05:56:29;;;;;;;10.88;7.68;;;;;;;;;;5058613;28;20515;-72
2024/02/14 05:58:55;;;;;;;13.45;8.23;;;;;;;;;;5082901;28;20150;-72
2024/02/14 06:01:22;;;;;;;12.90;8.95;;;;;;;;;;5080080;28;20062;-72
2024/02/14 06:03:49;;;;;;;12.02;8.07;;;;;;;;;;5069462;28;20103;-73
2024/02/14 06:06:15;;;;;;;13.30;8.82;;;;;;;;;;5077356;28;20450;-72
2024/02/14 06:08:42;;;;;;;11.20;7.60;;;;;;;;;;5081103;28;20538;-73
2024/02/14 06:11:08;;;;;;;11.98;7.70;;;;;;;;;;5086754;28;20150;-73
2024/02/14 06:13:38;;;;;;;10.95;8.07;;;;;;;;;;5060309;28;20044;-73
2024/02/14 06:16:05;;;;;;;11.32;7.75;;;;;;;;;;5079217;28;20047;-72
2024/02/14 06:18:31;;;;;;;12.95;7.93;;;;;;;;;;5081968;28;20048;-72
2024/02/14 06:20:58;;;;;;;14.10;8.32;;;;;;;;;;5072961;28;20536;-73
2024/02/14 06:23:24;;;;;;;13.57;8.55;;;;;;;;;;5070487;28;20040;-72
2024/02/14 06:25:51;;;;;;;11.95;8.48;;;;;;;;;;5072121;28;20044;-72
2024/02/14 06:28:17;;;;;;;12.55;8.43;;;;;;;;;;5073151;28;20143;-72
2024/02/14 06:30:43;;;;;;;12.20;9.20;;;;;;;;;;5064893;28;20083;-71
2024/02/14 06:33:10;;;;;;;14.68;9.23;;;;;;;;;;5073963;28;20055;-72
2024/02/14 06:35:37;;;;;;;12.57;7.30;;;;;;;;;;5077638;28;20045;-72
2024/02/14 06:38:04;;;;;;;13.07;8.65;;;;;;;;;;5083613;28;20052;-70
2024/02/14 06:40:31;;;;;;;14.07;8.38;;;;;;;;;;5063726;28;20110;-70
2024/02/14 06:42:59;;;;;;;13.70;8.32;;;;;;;;;;5076598;28;20046;-73
2024/02/14 06:45:30;;;;;;;13.63;8.18;;;;;;;;;;5053067;28;20484;-73
2024/02/14 06:47:56;;;;;;;12.23;8.38;;;;;;;;;;5064982;28;20048;-70
2024/02/14 06:50:25;;;;;;;12.85;8.75;;;;;;;;;;5072747;28;20145;-70
2024/02/14 06:52:52;;;;;;;11.60;7.90;;;;;;;;;;5065801;28;20053;-72
2024/02/14 06:55:18;;;;;;;11.15;8.20;;;;;;;;;;5072962;28;20063;-71
2024/02/14 06:57:45;;;;;;;13.48;8.52;;;;;;;;;;5077100;28;20059;-75
2024/02/14 07:00:12;;;;;;;12.05;8.40;;;;;;;;;;5073777;28;20101;-72
2024/02/14 07:02:39;;;;;;;12.57;7.85;;;;;;;;;;5091564;28;20051;-72
2024/02/14 07:05:07;;;;;;;11.90;8.55;;;;;;;;;;5084459;28;20063;-73
2024/02/14 07:07:34;;;;;;;10.52;7.63;;;;;;;;;;5083601;28;20043;-72
2024/02/14 07:10:01;;;;;;;9.95;8.05;;;;;;;;;;5086188;28;20711;-72
2024/02/14 07:12:30;;;;;;;10.18;7.32;;;;;;;;;;5067881;28;20098;-72
2024/02/14 07:14:57;;;;;;;12.25;8.20;;;;;;;;;;5064436;28;20055;-72
2024/02/14 07:17:23;;;;;;;11.63;7.93;;;;;;;;;;5073787;28;20049;-72
2024/02/14 07:19:50;;;;;;;14.05;8.32;;;;;;;;;;5078345;28;20062;-72
2024/02/14 07:22:19;;;;;;;11.43;7.97;;;;;;;;;;5071113;28;20045;-71
2024/02/14 07:24:46;;;;;;;12.25;9.23;;;;;;;;;;5111935;27;20040;-72
2024/02/14 07:27:13;;;;;;;12.25;8.23;;;;;;;;;;5086956;28;20044;-72
2024/02/14 07:29:40;;;;;;;12.33;9.13;;;;;;;;;;5073827;28;20112;-73
2024/02/14 07:32:07;;;;;;;12.98;8.82;;;;;;;;;;5089512;28;20058;-72
2024/02/14 07:34:33;;;;;;;15.82;8.73;;;;;;;;;;5076908;28;20048;-72
2024/02/14 07:37:00;;;;;;;13.75;9.48;;;;;;;;;;5051320;28;20124;-72
2024/02/14 07:39:26;;;;;;;11.38;9.00;;;;;;;;;;5059392;28;20092;-73
2024/02/14 07:41:52;;;;;;;17.33;10.88;;;;;;;;;;5067831;28;20738;-72
2024/02/14 07:44:19;;;;;;;15.00;10.25;;;;;;;;;;5061136;28;20049;-72
2024/02/14 07:46:45;;;;;;;15.32;9.95;;;;;;;;;;5083279;28;20472;-72
2024/02/14 07:49:12;;;;;;;13.65;9.50;;;;;;;;;;5078895;28;20048;-72
2024/02/14 07:51:38;;;;;;;14.55;10.30;;;;;;;;;;5052940;28;20048;-72
2024/02/14 07:54:05;;;;;;;18.63;11.50;;;;;;;;;;5082504;27;20056;-72
2024/02/14 07:56:32;;;;;;;16.85;10.55;;;;;;;;;;5084658;28;20048;-72
2024/02/14 07:58:59;;;;;;;15.43;11.00;;;;;;;;;;5078088;28;20403;-73
2024/02/14 08:01:26;;;;;;;16.75;10.50;;;;;;;;;;5064870;28;20048;-73
2024/02/14 08:03:52;;;;;;;14.63;9.27;;;;;;;;;;5085543;28;20479;-72
2024/02/14 08:06:19;;;;;;;19.60;10.85;;;;;;;;;;5065405;28;20102;-73
2024/02/14 08:08:45;;;;;;;15.18;10.25;;;;;;;;;;5089503;28;20047;-73
2024/02/14 08:11:12;;;;;;;15.82;9.93;;;;;;;;;;5068445;28;20438;-72
2024/02/14 08:13:39;;;;;;;18.60;10.80;;;;;;;;;;5096751;28;20122;-71
2024/02/14 08:16:06;;;;;;;16.67;9.35;;;;;;;;;;5074344;28;20052;-76
2024/02/14 08:18:33;;;;;;;13.18;9.13;;;;;;;;;;5078630;28;20051;-76
2024/02/14 08:21:00;;;;;;;15.27;9.88;;;;;;;;;;5082449;28;20131;-76
2024/02/14 08:23:26;;;;;;;12.77;9.30;;;;;;;;;;5054082;28;20075;-75
2024/02/14 08:25:52;;;;;;;11.43;9.25;;;;;;;;;;5069000;28;20052;-75
2024/02/14 08:28:20;;;;;;;15.70;8.80;;;;;;;;;;5067134;28;20661;-75
2024/02/14 08:30:47;;;;;;;13.77;9.30;;;;;;;;;;5078541;28;20052;-75
2024/02/14 08:33:14;;;;;;;14.07;9.25;;;;;;;;;;5066370;28;20054;-76
2024/02/14 08:35:41;;;;;;;13.23;8.68;;;;;;;;;;5080743;28;20055;-75
2024/02/14 08:38:09;;;;;;;;;;;;;;;;;;5075579;28;20075;-76
2024/02/14 08:40:36;;;;;;;17.52;8.40;;;;;;;;;;5060764;28;20012;-75
2024/02/14 08:43:04;;;;;;;12.75;9.13;;;;;;;;;;5078561;28;20153;-75
2024/02/14 08:45:31;;;;;;;12.23;8.90;;;;;;;;;;5063248;28;20087;-74
2024/02/14 08:47:58;;;;;;;12.23;8.90;;;;;;;;;;5066991;28;20040;-75
2024/02/14 08:50:24;;;;;;;12.85;8.55;;;;;;;;;;5065331;28;20055;-75
2024/02/14 08:52:51;;;;;;;11.32;8.05;;;;;;;;;;5065210;28;20060;-74
2024/02/14 08:55:18;;;;;;;15.95;9.18;;;;;;;;;;5069209;28;20445;-74
2024/02/14 08:57:47;;;;;;;13.82;8.60;;;;;;;;;;5052251;28;20062;-73
2024/02/14 09:00:15;;;;;;;13.25;8.68;;;;;;;;;;5061152;28;20045;-76
2024/02/14 09:02:42;;;;;;;18.38;9.40;;;;;;;;;;5074071;28;20139;-74
2024/02/14 09:05:09;;;;;;;11.70;9.13;;;;;;;;;;5051218;28;20489;-75
2024/02/14 09:07:36;;;;;;;12.35;9.50;;;;;;;;;;5078618;28;20755;-76
2024/02/14 09:10:03;;;;;;;14.82;9.25;;;;;;;;;;5080169;28;20043;-76
2024/02/14 09:12:29;;;;;;;13.43;8.38;;;;;;;;;;5051518;28;20132;-75
2024/02/14 09:14:56;;;;;;;13.75;8.80;;;;;;;;;;5067895;28;20122;-75
2024/02/14 09:17:23;;;;;;;12.88;9.45;;;;;;;;;;5081292;28;20051;-75
2024/02/14 09:19:51;;;;;;;14.30;10.70;;;;;;;;;;5068597;28;20670;-76
2024/02/14 09:22:21;;;;;;;12.38;8.65;;;;;;;;;;5054005;28;20056;-76
2024/02/14 09:24:48;;;;;;;13.15;9.18;;;;;;;;;;5072133;28;20102;-76
2024/02/14 09:27:14;;;;;;;14.07;9.57;;;;;;;;;;5064655;28;20076;-76
2024/02/14 09:29:41;;;;;;;10.60;8.43;;;;;;;;;;5067748;28;20253;-76
2024/02/14 09:32:08;;;;;;;14.18;8.68;;;;;;;;;;5057838;28;20044;-75
2024/02/14 09:34:35;;;;;;;13.07;8.27;;;;;;;;;;5062759;28;20048;-76
2024/02/14 09:37:01;;;;;;;10.75;8.18;;;;;;;;;;5090600;28;20117;-76
2024/02/14 09:39:28;;;;;;;13.35;8.40;;;;;;;;;;5083469;28;20071;-76
2024/02/14 09:41:59;;;;;;;13.38;9.52;;;;;;;;;;5071251;28;20131;-76
2024/02/14 09:44:28;;;;;;;16.50;8.88;;;;;;;;;;5091367;27;20048;-75
2024/02/14 09:46:55;;;;;;;14.15;9.57;;;;;;;;;;5066212;28;20052;-75
2024/02/14 09:49:21;;;;;;;10.77;8.43;;;;;;;;;;5094026;28;20130;-76
2024/02/14 09:51:49;;;;;;;13.82;9.07;;;;;;;;;;5077271;28;20101;-76
2024/02/14 09:54:16;;;;;;;12.90;8.23;;;;;;;;;;5070221;28;20407;-75
2024/02/14 09:56:53;;;;;;;13.55;8.75;;;;;;;;;;5076482;28;20672;-75
2024/02/14 09:59:23;;;;;;;16.55;9.00;;;;;;;;;;5074027;28;20049;-75
2024/02/14 10:01:51;;;;;;;15.38;9.00;;;;;;;;;;5057181;28;20142;-75
2024/02/14 10:04:22;;;;;;;16.73;8.65;;;;;;;;;;5079961;28;20051;-76
2024/02/14 10:06:51;;;;;;;14.02;8.55;;;;;;;;;;5103696;28;20158;-76
2024/02/14 10:09:19;;;;;;;17.17;9.88;;;;;;;;;;5073194;28;20106;-76
2024/02/14 10:11:46;;;;;;;15.32;9.23;;;;;;;;;;5093160;28;20103;-74
2024/02/14 10:14:13;;;;;;;14.90;9.68;;;;;;;;;;5075986;28;20067;-74
2024/02/14 10:16:40;;;;;;;15.75;9.55;;;;;;;;;;5055964;28;20437;-73
2024/02/14 10:19:25;;;;;;;16.70;8.30;;;;;;;;;;5061517;28;20545;-73
2024/02/14 10:21:57;;;;;;;11.27;8.05;;;;;;;;;;5080297;28;20051;-76
2024/02/14 10:24:24;;;;;;;12.65;8.80;;;;;;;;;;5071677;28;20097;-75
2024/02/14 10:26:51;;;;;;;17.27;8.85;;;;;;;;;;5064073;28;20535;-75
2024/02/14 10:29:20;;;;;;;14.43;9.05;;;;;;;;;;5066901;28;20044;-75
2024/02/14 10:31:47;;;;;;;15.63;8.18;;;;;;;;;;5059298;28;20053;-76
2024/02/14 10:34:13;;;;;;;15.30;9.20;;;;;;;;;;5087518;28;20044;-74
2024/02/14 10:36:42;;;;;;;13.68;8.63;;;;;;;;;;5065420;28;20040;-71
2024/02/14 10:39:10;;;;;;;12.82;8.27;;;;;;;;;;5077636;28;20074;-74
2024/02/14 10:41:37;;;;;;;17.25;9.38;;;;;;;;;;5075022;28;20058;-74
2024/02/14 10:44:07;;;;;;;13.38;8.25;;;;;;;;;;5080204;28;20055;-72
2024/02/14 10:46:36;;;;;;;13.40;7.85;;;;;;;;;;5067587;28;20132;-71
2024/02/14 10:49:04;;;;;;;13.40;9.68;;;;;;;;;;5074957;28;20040;-71
2024/02/14 10:51:35;;;;;;;16.33;9.02;;;;;;;;;;5069354;28;20855;-73
2024/02/14 10:54:10;;;;;;;14.88;9.45;;;;;;;;;;5082340;28;20475;-74
2024/02/14 10:56:38;;;;;;;13.15;8.70;;;;;;;;;;5069735;28;20048;-74
2024/02/14 10:59:06;;;;;;;11.90;6.93;;;;;;;;;;5069015;28;20138;-73
2024/02/14 11:01:34;;;;;;;11.35;7.35;;;;;;;;;;5073500;28;20093;-74
2024/02/14 11:04:01;;;;;;;12.88;7.70;;;;;;;;;;5086810;28;20545;-73
2024/02/14 11:06:31;;;;;;;18.27;8.07;;;;;;;;;;5063784;28;20060;-73
2024/02/14 11:09:01;;;;;;;12.65;7.13;;;;;;;;;;5081330;28;20040;-72
2024/02/14 11:11:29;;;;;;;14.88;7.90;;;;;;;;;;5053559;28;20048;-73
2024/02/14 11:13:56;;;;;;;13.57;7.50;;;;;;;;;;5050149;28;20089;-73
2024/02/14 11:16:27;;;;;;;11.18;7.68;;;;;;;;;;5079893;28;20091;-72
2024/02/14 11:19:06;;;;;;;12.65;7.57;;;;;;;;;;5057939;28;20060;-73
2024/02/14 11:21:35;;;;;;;8.93;6.70;;;;;;;;;;5091777;28;20070;-72
2024/02/14 11:24:07;;;;;;;13.13;8.13;;;;;;;;;;5058093;28;20408;-74
2024/02/14 11:26:40;;;;;;;15.13;7.68;;;;;;;;;;5078371;28;20576;-72
2024/02/14 11:29:07;;;;;;;18.92;8.00;;;;;;;;;;5090463;28;20103;-72
2024/02/14 11:31:35;;;;;;;10.50;6.90;;;;;;;;;;5064241;28;20131;-72
2024/02/14 11:34:05;;;;;;;11.52;7.35;;;;;;;;;;5083876;28;20155;-72
2024/02/14 11:36:33;;;;;;;11.88;6.90;;;;;;;;;;5082829;28;20056;-73
2024/02/14 11:39:02;;;;;;;12.67;7.83;;;;;;;;;;5069128;28;20881;-72
2024/02/14 11:41:28;;;;;;;14.15;8.07;;;;;;;;;;5079260;28;20697;-72
2024/02/14 11:44:02;;;;;;;12.52;7.50;;;;;;;;;;5068057;28;20044;-72
2024/02/14 11:46:32;;;;;;;14.13;7.10;;;;;;;;;;5069463;28;20047;-75
2024/02/14 11:49:00;;;;;;;11.05;7.38;;;;;;;;;;5045506;28;20040;-76
2024/02/14 11:51:28;;;;;;;11.32;6.85;;;;;;;;;;5077089;28;20817;-75
2024/02/14 11:53:54;;;;;;;12.70;7.63;;;;;;;;;;5061310;28;20467;-75
2024/02/14 11:56:22;;;;;;;9.45;7.40;;;;;;;;;;5066742;28;20078;-76
2024/02/14 11:58:52;;;;;;;12.77;7.33;;;;;;;;;;5074332;28;20595;-76
2024/02/14 12:01:18;;;;;;;11.45;7.20;;;;;;;;;;5063522;28;20296;-76
2024/02/14 12:03:45;;;;;;;11.15;6.47;;;;;;;;;;5061064;28;20131;-74
2024/02/14 12:06:11;;;;;;;8.98;6.13;;;;;;;;;;5070392;28;20143;-76
2024/02/14 12:08:38;;;;;;;13.13;6.63;;;;;;;;;;5063953;28;20059;-74
2024/02/14 12:11:05;;;;;;;10.60;6.57;;;;;;;;;;5061557;28;20040;-74
2024/02/14 12:13:33;;;;;;;7.45;5.82;;;;;;;;;;5073871;28;20044;-74
2024/02/14 12:15:59;;;;;;;9.68;5.97;;;;;;;;;;5076804;28;20059;-74
2024/02/14 12:18:26;;;;;;;9.55;5.53;;;;;;;;;;5077842;28;20059;-74
2024/02/14 12:21:02;;;;;;;11.85;5.60;;;;;;;;;;5076479;28;20052;-73
2024/02/14 12:23:29;;;;;;;9.05;6.05;;;;;;;;;;5071924;28;20079;-77
2024/02/14 12:26:01;;;;;;;9.10;5.25;;;;;;;;;;5069927;28;20048;-76
2024/02/14 12:28:28;;;;;;;6.43;4.78;;;;;;;;;;5085614;28;20047;-76
2024/02/14 12:30:58;;;;;;;7.17;4.80;;;;;;;;;;5063719;28;20604;-73
2024/02/14 12:33:25;;;;;;;7.50;4.80;;;;;;;;;;5082196;28;20048;-74
2024/02/14 12:35:53;;;;;;;8.30;4.88;;;;;;;;;;5076516;28;20732;-74
2024/02/14 12:38:21;;;;;;;9.02;4.53;;;;;;;;;;5087670;28;20058;-74
2024/02/14 12:40:47;;;;;;;5.88;4.57;;;;;;;;;;5077563;28;20052;-74
2024/02/14 12:43:14;;;;;;;6.13;4.30;;;;;;;;;;5072362;28;20076;-74
2024/02/14 12:45:41;;;;;;;6.63;4.22;;;;;;;;;;5066607;28;20082;-74
2024/02/14 12:48:08;;;;;;;9.63;4.80;;;;;;;;;;5076293;28;20087;-75
2024/02/14 12:50:37;;;;;;;5.35;4.32;;;;;;;;;;5063088;28;20056;-74
2024/02/14 12:53:04;;;;;;;8.25;5.65;;;;;;;;;;5073446;28;20097;-76
2024/02/14 12:55:31;;;;;;;5.75;4.30;;;;;;;;;;5057971;28;20126;-75
2024/02/14 12:57:58;;;;;;;6.95;5.57;;;;;;;;;;5074174;28;20441;-75
2024/02/14 13:00:24;;;;;;;6.75;4.55;;;;;;;;;;5066217;28;20465;-75
2024/02/14 13:02:51;;;;;;;6.43;4.53;;;;;;;;;;5068611;28;20036;-75
2024/02/14 13:05:17;;;;;;;7.90;4.25;;;;;;;;;;5069022;28;20170;-76
2024/02/14 13:07:45;;;;;;;5.13;4.15;;;;;;;;;;5072693;28;20056;-77
2024/02/14 13:10:11;;;;;;;5.97;4.10;;;;;;;;;;5054117;28;20071;-78
2024/02/14 13:12:38;;;;;;;5.20;3.85;;;;;;;;;;5063026;28;20060;-77
2024/02/14 13:15:08;;;;;;;5.97;3.80;;;;;;;;;;5081451;28;20064;-77
2024/02/14 13:17:34;;;;;;;5.07;3.65;;;;;;;;;;5085772;28;20150;-77
2024/02/14 13:20:01;;;;;;;4.53;3.70;;;;;;;;;;5086981;28;20522;-77
2024/02/14 13:22:28;;;;;;;5.65;3.90;;;;;;;;;;5066755;28;20048;-77
2024/02/14 13:24:56;;;;;;;4.90;3.63;;;;;;;;;;5090160;28;20051;-78
2024/02/14 13:27:23;;;;;;;5.38;4.03;;;;;;;;;;5073426;28;20602;-78
2024/02/14 13:29:49;;;;;;;4.95;4.05;;;;;;;;;;5074612;28;20851;-77
2024/02/14 13:32:16;;;;;;;4.60;3.88;;;;;;;;;;5064101;28;20049;-77
2024/02/14 13:34:43;;;;;;;5.45;3.85;;;;;;;;;;5085200;27;20059;-78
2024/02/14 13:37:10;;;;;;;6.03;4.22;;;;;;;;;;5086541;28;20153;-76
2024/02/14 13:39:38;;;;;;;7.18;3.63;;;;;;;;;;5083372;28;20044;-75
2024/02/14 13:42:05;;;;;;;7.30;4.45;;;;;;;;;;5067576;28;20044;-75
2024/02/14 13:44:32;;;;;;;6.93;4.03;;;;;;;;;;5089672;28;20385;-77
2024/02/14 13:46:59;;;;;;;5.60;4.45;;;;;;;;;;5077412;28;20044;-77
2024/02/14 13:49:26;;;;;;;6.85;4.50;;;;;;;;;;5068802;28;20048;-78
2024/02/14 13:51:53;;;;;;;6.65;5.03;;;;;;;;;;5059548;28;20051;-78
2024/02/14 13:54:20;;;;;;;9.25;4.90;;;;;;;;;;5077113;28;20053;-78
2024/02/14 13:56:48;;;;;;;7.63;4.97;;;;;;;;;;5089692;28;20139;-77
2024/02/14 13:59:14;;;;;;;6.43;4.95;;;;;;;;;;5080516;28;20056;-77
2024/02/14 14:01:41;;;;;;;8.30;5.85;;;;;;;;;;5059341;28;20044;-77
2024/02/14 14:04:08;;;;;;;7.60;5.32;;;;;;;;;;5053910;28;20106;-78
2024/02/14 14:06:35;;;;;;;6.95;5.53;;;;;;;;;;5080100;28;20048;-75
2024/02/14 14:09:07;;;;;;;6.90;5.70;;;;;;;;;;5063276;28;20048;-75
2024/02/14 14:11:34;;;;;;;5.90;5.15;;;;;;;;;;5072472;28;20098;-74
2024/02/14 14:14:00;;;;;;;7.85;5.78;;;;;;;;;;5074207;28;20050;-74
2024/02/14 14:16:27;;;;;;;7.13;6.03;;;;;;;;;;5073788;28;20419;-74
2024/02/14 14:18:53;;;;;;;11.02;5.43;;;;;;;;;;5068182;28;20129;-74
2024/02/14 14:21:20;;;;;;;9.40;5.97;;;;;;;;;;5064809;28;20476;-74
2024/02/14 14:23:47;;;;;;;8.23;5.63;;;;;;;;;;5085456;28;20063;-73
2024/02/14 14:26:15;;;;;;;8.25;6.20;;;;;;;;;;5090685;28;20075;-73
2024/02/14 14:28:42;;;;;;;6.90;5.63;;;;;;;;;;5071487;28;20427;-73
2024/02/14 14:31:11;;;;;;;8.57;7.03;;;;;;;;;;5081016;28;20056;-73
2024/02/14 14:33:38;;;;;;;8.88;6.32;;;;;;;;;;5065909;28;20483;-74
2024/02/14 14:36:06;;;;;;;9.73;6.65;;;;;;;;;;5091227;28;20093;-74